Time;durP1;ratioP1;P1;durP2;ratioP2;P2;SDS_P1;SDS_P2;PMS_P1;PMS_P2;Temp;Humidity;BMP_temperature;BMP_pressure;BME280_temperature;BME280_humidity;BME280_pressure;Samples;Min_cycle;Max_cycle;Signal;HPM_P1;HPM_P2
2022/06/28 00:00:38;;;;;;;16.58;14.95;;;13.10;99.90;;;;;;5007178;28;20139;-45
2022/06/28 00:03:04;;;;;;;15.77;14.25;;;13.00;99.90;;;;;;5021409;28;20045;-47
2022/06/28 00:05:30;;;;;;;15.38;13.93;;;13.10;99.90;;;;;;5023589;28;20057;-44
2022/06/28 00:07:56;;;;;;;15.95;14.35;;;13.00;99.90;;;;;;5018808;28;20076;-46
2022/06/28 00:10:24;;;;;;;16.02;14.40;;;13.00;99.90;;;;;;5016719;28;20041;-44
2022/06/28 00:12:50;;;;;;;15.43;14.07;;;13.00;99.90;;;;;;5019837;28;20196;-47
2022/06/28 00:18:00;;;;;;;15.32;13.02;;;13.00;99.90;;;;;;5009274;28;20068;-46
2022/06/28 00:20:27;;;;;;;15.05;13.55;;;12.90;99.90;;;;;;5009245;28;20487;-43
2022/06/28 00:22:53;;;;;;;15.75;14.13;;;12.90;99.90;;;;;;5007515;28;20060;-43
2022/06/28 00:25:18;;;;;;;13.32;12.00;;;12.90;99.90;;;;;;5012873;28;20037;-45
2022/06/28 00:27:44;;;;;;;13.35;12.05;;;12.90;99.90;;;;;;5013477;28;20479;-43
2022/06/28 00:30:11;;;;;;;15.13;12.48;;;12.90;99.90;;;;;;5001684;28;20491;-44
2022/06/28 00:32:40;;;;;;;14.73;12.73;;;12.80;99.90;;;;;;5016140;28;20093;-44
2022/06/28 00:35:07;;;;;;;15.68;13.88;;;12.90;99.90;;;;;;5017941;28;20056;-43
2022/06/28 00:37:32;;;;;;;13.77;12.48;;;12.80;99.90;;;;;;5016561;28;20058;-44
2022/06/28 00:39:58;;;;;;;14.80;13.23;;;12.80;99.90;;;;;;5014625;28;20130;-44
2022/06/28 00:42:24;;;;;;;14.98;12.70;;;12.80;99.90;;;;;;5015514;28;20046;-43
2022/06/28 00:44:51;;;;;;;14.77;13.02;;;12.80;99.90;;;;;;4993804;28;20061;-44
2022/06/28 00:47:17;;;;;;;13.10;11.90;;;12.70;99.90;;;;;;5011813;28;20057;-44
2022/06/28 00:49:43;;;;;;;12.20;10.98;;;12.70;99.90;;;;;;5004754;28;20454;-43
2022/06/28 00:52:11;;;;;;;13.25;12.07;;;12.60;99.90;;;;;;5006443;28;20142;-44
2022/06/28 00:54:38;;;;;;;13.40;11.32;;;12.70;99.90;;;;;;5007831;28;20058;-44
2022/06/28 00:57:05;;;;;;;16.50;12.23;;;12.70;99.90;;;;;;4973718;28;20073;-43
2022/06/28 00:59:31;;;;;;;15.15;13.30;;;12.60;99.90;;;;;;5008792;28;20049;-45
2022/06/28 01:02:00;;;;;;;15.15;12.57;;;12.60;99.90;;;;;;5012157;28;20123;-44
2022/06/28 01:04:27;;;;;;;13.35;11.45;;;12.60;99.90;;;;;;5014747;28;20399;-44
2022/06/28 01:06:53;;;;;;;16.05;11.95;;;12.70;99.90;;;;;;5028916;28;20084;-45
2022/06/28 01:09:20;;;;;;;15.63;11.65;;;12.70;99.90;;;;;;5023824;28;20053;-43
2022/06/28 01:11:45;;;;;;;16.42;11.68;;;12.70;99.90;;;;;;5024247;28;20045;-45
2022/06/28 01:14:11;;;;;;;14.23;11.80;;;12.70;99.90;;;;;;5027895;28;20055;-44
2022/06/28 01:16:37;;;;;;;12.18;10.68;;;12.80;99.90;;;;;;5018392;28;20053;-44
2022/06/28 01:19:07;;;;;;;12.90;10.13;;;12.70;99.90;;;;;;5004352;28;20222;-45
2022/06/28 01:21:34;;;;;;;12.75;10.00;;;12.70;99.90;;;;;;5017485;28;20080;-45
2022/06/28 01:24:00;;;;;;;10.63;9.52;;;12.70;99.90;;;;;;5022534;28;20045;-43
2022/06/28 01:26:27;;;;;;;11.82;9.68;;;12.70;99.90;;;;;;5014349;28;20058;-43
2022/06/28 01:28:53;;;;;;;14.48;10.70;;;12.60;99.90;;;;;;5000967;28;20513;-43
2022/06/28 01:31:21;;;;;;;10.88;9.35;;;12.60;99.90;;;;;;5015192;28;20530;-44
2022/06/28 01:33:48;;;;;;;12.48;10.25;;;12.50;99.90;;;;;;5017190;28;20048;-43
2022/06/28 01:36:14;;;;;;;14.15;9.93;;;12.50;99.90;;;;;;5007269;28;20391;-44
2022/06/28 01:38:40;;;;;;;12.07;9.52;;;12.50;99.90;;;;;;5020109;28;20057;-44
2022/06/28 01:41:08;;;;;;;10.25;9.35;;;12.50;99.90;;;;;;5000381;28;20046;-45
2022/06/28 01:43:35;;;;;;;10.63;7.82;;;12.40;99.90;;;;;;4987404;28;20561;-45
2022/06/28 01:46:03;;;;;;;9.55;7.75;;;12.40;99.90;;;;;;4994915;28;20049;-43
2022/06/28 01:48:33;;;;;;;11.38;8.32;;;12.40;99.90;;;;;;5000975;28;20483;-44
2022/06/28 01:50:59;;;;;;;10.45;7.57;;;12.30;99.90;;;;;;4967309;28;20050;-43
2022/06/28 01:53:26;;;;;;;9.98;7.97;;;12.20;99.90;;;;;;4981881;28;20046;-44
2022/06/28 01:55:52;;;;;;;13.40;7.70;;;12.30;99.90;;;;;;4973702;28;20145;-43
2022/06/28 01:58:18;;;;;;;12.65;7.47;;;12.30;99.90;;;;;;4997756;28;20049;-44
2022/06/28 02:00:44;;;;;;;10.43;7.18;;;12.30;99.90;;;;;;5007181;28;20060;-44
2022/06/28 02:03:11;;;;;;;10.65;6.85;;;12.20;99.90;;;;;;4984363;28;20453;-45
2022/06/28 02:05:37;;;;;;;10.65;6.78;;;12.10;99.90;;;;;;4996610;28;20065;-43
2022/06/28 02:08:06;;;;;;;13.63;7.55;;;12.20;99.90;;;;;;5004114;28;20049;-51
2022/06/28 02:10:32;;;;;;;13.73;7.90;;;12.10;99.90;;;;;;4976333;28;20049;-43
2022/06/28 02:12:57;;;;;;;11.98;7.45;;;12.10;99.90;;;;;;4996550;28;20050;-44
2022/06/28 02:15:23;;;;;;;9.85;6.70;;;12.00;99.90;;;;;;4997333;28;20046;-46
2022/06/28 02:17:49;;;;;;;10.07;6.90;;;12.00;99.90;;;;;;4982054;28;20046;-44
2022/06/28 02:20:15;;;;;;;9.13;6.32;;;12.00;99.90;;;;;;4982813;28;20046;-44
2022/06/28 02:22:59;;;;;;;11.70;7.03;;;12.00;99.90;;;;;;4982182;28;20061;-46
2022/06/28 02:25:34;;;;;;;17.92;7.28;;;11.90;99.90;;;;;;5001861;28;21064;-45
2022/06/28 02:28:00;;;;;;;12.52;7.30;;;11.90;99.90;;;;;;5005448;28;20053;-44
2022/06/28 02:30:25;;;;;;;12.27;7.30;;;12.00;99.90;;;;;;5009400;28;20491;-44
2022/06/28 02:32:51;;;;;;;13.60;7.35;;;11.90;99.90;;;;;;4981979;28;20504;-47
2022/06/28 02:40:46;;;;;;;14.93;8.60;;;11.90;99.90;;;;;;4995045;28;20053;-45
2022/06/28 02:43:13;;;;;;;11.65;7.65;;;11.90;99.90;;;;;;5006190;28;20056;-46
2022/06/28 02:45:42;;;;;;;10.77;7.53;;;11.90;99.90;;;;;;5000798;28;20535;-43
2022/06/28 02:48:08;;;;;;;13.50;7.90;;;11.90;99.90;;;;;;5011918;28;20049;-44
2022/06/28 02:50:34;;;;;;;15.73;7.03;;;11.90;99.90;;;;;;5002663;28;20060;-45
2022/06/28 02:53:00;;;;;;;12.38;7.30;;;11.90;99.90;;;;;;5003107;28;20449;-45
2022/06/28 02:55:27;;;;;;;9.43;7.10;;;11.80;99.90;;;;;;4994769;28;20132;-43
2022/06/28 02:57:53;;;;;;;9.93;7.22;;;11.90;99.90;;;;;;5003510;28;20501;-45
2022/06/28 03:00:20;;;;;;;11.85;7.22;;;11.80;99.90;;;;;;5019908;28;20529;-45
2022/06/28 03:02:47;;;;;;;10.77;7.40;;;11.80;99.90;;;;;;5027722;28;20053;-43
2022/06/28 03:05:16;;;;;;;15.15;7.93;;;11.80;99.90;;;;;;5017472;28;20091;-43
2022/06/28 03:07:42;;;;;;;11.65;7.30;;;11.80;99.90;;;;;;5015883;28;20575;-43
2022/06/28 03:10:09;;;;;;;10.90;7.45;;;11.80;99.90;;;;;;4989471;28;20187;-43
2022/06/28 03:12:35;;;;;;;12.60;7.10;;;11.70;99.90;;;;;;5007043;28;20423;-44
2022/06/28 03:15:01;;;;;;;11.20;7.13;;;11.70;99.90;;;;;;5017829;28;20050;-44
2022/06/28 03:17:27;;;;;;;11.23;7.70;;;11.80;99.90;;;;;;5004323;28;20060;-44
2022/06/28 03:19:53;;;;;;;13.77;7.75;;;11.70;99.90;;;;;;5014360;28;20068;-44
2022/06/28 03:22:19;;;;;;;10.93;7.60;;;11.70;99.90;;;;;;5005098;28;20412;-43
2022/06/28 03:24:46;;;;;;;12.50;6.95;;;11.80;99.90;;;;;;5011898;28;20529;-46
2022/06/28 03:27:12;;;;;;;9.80;7.78;;;11.70;99.90;;;;;;5011662;28;20576;-44
2022/06/28 03:29:38;;;;;;;12.07;7.50;;;11.70;99.90;;;;;;5015928;28;20460;-43
2022/06/28 03:32:04;;;;;;;10.60;7.28;;;11.70;99.90;;;;;;5020173;28;20045;-43
2022/06/28 03:34:30;;;;;;;9.32;6.80;;;11.70;99.90;;;;;;5010260;28;20479;-44
2022/06/28 03:36:56;;;;;;;8.77;6.47;;;11.70;99.90;;;;;;5010659;28;20077;-43
2022/06/28 03:39:22;;;;;;;9.38;6.45;;;11.80;99.90;;;;;;5022102;28;20132;-46
2022/06/28 03:41:48;;;;;;;8.73;6.43;;;11.70;99.90;;;;;;5023743;28;20049;-46
2022/06/28 03:44:13;;;;;;;7.22;6.38;;;11.80;99.90;;;;;;5012901;28;20053;-46
2022/06/28 03:46:39;;;;;;;13.27;6.90;;;11.80;99.90;;;;;;5007849;28;20057;-42
2022/06/28 03:49:05;;;;;;;10.93;6.55;;;11.80;99.90;;;;;;5019217;28;20185;-43
2022/06/28 03:51:31;;;;;;;10.10;6.72;;;11.80;99.90;;;;;;5015361;28;20565;-43
2022/06/28 03:53:56;;;;;;;10.90;5.82;;;11.90;99.90;;;;;;5015217;28;20171;-44
2022/06/28 03:56:22;;;;;;;8.00;5.90;;;12.00;99.90;;;;;;5014252;28;20057;-43
2022/06/28 03:58:48;;;;;;;12.18;6.43;;;12.10;99.90;;;;;;5017677;28;20407;-44
2022/06/28 04:01:14;;;;;;;10.43;6.13;;;12.60;99.90;;;;;;5019083;28;20045;-44
2022/06/28 04:03:40;;;;;;;10.27;5.57;;;13.50;99.90;;;;;;5002598;28;20072;-43
2022/06/28 04:06:06;;;;;;;7.25;4.88;;;14.30;99.90;;;;;;5019693;28;20147;-45
2022/06/28 04:08:31;;;;;;;8.60;5.45;;;15.20;99.90;;;;;;5018968;28;20054;-45
2022/06/28 04:13:50;;;;;;;8.60;4.80;;;16.70;99.90;;;;;;5012417;28;20045;-43
2022/06/28 04:16:17;;;;;;;11.98;4.60;;;17.50;99.90;;;;;;5013321;28;20486;-43
2022/06/28 04:18:46;;;;;;;8.48;4.22;;;18.10;99.90;;;;;;5011636;28;20053;-45
2022/06/28 04:21:16;;;;;;;13.07;5.57;;;18.60;99.90;;;;;;5012597;28;20452;-45
2022/06/28 04:23:42;;;;;;;9.88;4.35;;;19.10;99.90;;;;;;5019280;28;20586;-43
2022/06/28 04:26:08;;;;;;;11.50;4.43;;;19.60;99.90;;;;;;5020103;28;20691;-43
2022/06/28 04:28:34;;;;;;;6.55;4.47;;;20.00;99.90;;;;;;5013116;28;20100;-43
2022/06/28 04:31:01;;;;;;;6.40;4.05;;;20.40;99.90;;;;;;5016887;28;21723;-43
2022/06/28 04:33:27;;;;;;;7.95;4.05;;;20.70;99.90;;;;;;5027005;28;20053;-44
2022/06/28 04:35:53;;;;;;;6.43;3.97;;;21.00;99.90;;;;;;5004913;28;20068;-45
2022/06/28 04:38:19;;;;;;;9.48;4.50;;;21.30;99.90;;;;;;5023908;28;20571;-42
2022/06/28 04:40:45;;;;;;;7.72;4.25;;;21.60;99.90;;;;;;5005537;28;20475;-45
2022/06/28 04:43:11;;;;;;;7.78;3.50;;;21.70;99.90;;;;;;5020978;28;20067;-43
2022/06/28 04:45:38;;;;;;;6.47;3.63;;;22.10;99.90;;;;;;5002883;28;20057;-47
2022/06/28 04:48:05;;;;;;;7.93;4.03;;;22.60;99.90;;;;;;5018086;28;20049;-44
2022/06/28 04:50:30;;;;;;;7.45;4.03;;;22.80;99.90;;;;;;5012230;28;20046;-47
2022/06/28 04:52:56;;;;;;;8.52;3.70;;;23.20;99.90;;;;;;5010577;28;20594;-45
2022/06/28 04:55:22;;;;;;;5.90;3.65;;;23.40;99.90;;;;;;5013144;28;20141;-46
2022/06/28 04:57:48;;;;;;;8.02;4.10;;;23.60;99.90;;;;;;5018154;28;20166;-46
2022/06/28 05:00:14;;;;;;;6.45;3.65;;;24.00;99.90;;;;;;4996595;28;20084;-47
2022/06/28 05:02:43;;;;;;;7.80;3.60;;;24.10;99.90;;;;;;4994934;28;20518;-45
2022/06/28 05:05:13;;;;;;;7.45;3.55;;;24.50;99.90;;;;;;5014329;28;20041;-45
2022/06/28 05:07:39;;;;;;;7.30;3.35;;;24.80;99.90;;;;;;5005557;28;20064;-46
2022/06/28 05:10:08;;;;;;;8.73;3.90;;;25.30;99.90;;;;;;4990536;28;20142;-44
2022/06/28 05:12:33;;;;;;;6.50;3.42;;;25.70;99.90;;;;;;5022028;28;20521;-45
2022/06/28 05:14:59;;;;;;;9.43;3.33;;;26.20;99.90;;;;;;5021532;28;20132;-44
2022/06/28 05:17:25;;;;;;;7.65;3.55;;;26.30;99.90;;;;;;5022314;28;20049;-44
2022/06/28 05:19:52;;;;;;;9.07;3.78;;;26.40;99.00;;;;;;5022350;28;20046;-45
2022/06/28 05:22:18;;;;;;;6.53;2.97;;;26.60;99.60;;;;;;5014499;28;20495;-45
2022/06/28 05:24:43;;;;;;;7.45;3.08;;;26.80;98.90;;;;;;5022384;28;20053;-44
2022/06/28 05:27:09;;;;;;;6.00;3.13;;;27.20;99.20;;;;;;5022107;28;20337;-46
2022/06/28 05:29:35;;;;;;;8.50;3.13;;;27.20;98.30;;;;;;5022361;28;20172;-45
2022/06/28 05:32:01;;;;;;;9.05;3.60;;;27.30;98.10;;;;;;5022266;28;20049;-46
2022/06/28 05:34:27;;;;;;;7.68;3.50;;;27.50;98.10;;;;;;5016416;28;20085;-45
2022/06/28 05:36:52;;;;;;;10.15;3.58;;;27.80;97.30;;;;;;5011804;28;20387;-45
2022/06/28 05:39:18;;;;;;;5.30;3.05;;;27.90;97.60;;;;;;5022204;28;20072;-45
2022/06/28 05:41:44;;;;;;;10.10;3.88;;;28.00;97.30;;;;;;5001971;28;20101;-45
2022/06/28 05:44:14;;;;;;;8.82;3.65;;;28.20;97.10;;;;;;5001254;28;20049;-45
2022/06/28 05:46:40;;;;;;;10.00;3.10;;;28.40;96.50;;;;;;4999645;28;20065;-46
2022/06/28 05:49:09;;;;;;;7.13;3.00;;;28.60;96.60;;;;;;4989752;28;20108;-46
2022/06/28 05:51:36;;;;;;;9.05;3.08;;;28.80;95.60;;;;;;4991678;28;20136;-45
2022/06/28 05:54:02;;;;;;;7.18;3.15;;;28.80;95.70;;;;;;4980002;28;20061;-45
2022/06/28 05:56:30;;;;;;;9.52;3.08;;;28.80;95.70;;;;;;5002385;28;20157;-45
2022/06/28 05:58:56;;;;;;;7.65;3.15;;;28.90;95.30;;;;;;5001455;28;20045;-49
2022/06/28 06:01:23;;;;;;;6.97;3.13;;;28.80;95.30;;;;;;4997925;28;20080;-45
2022/06/28 06:03:49;;;;;;;5.90;3.00;;;29.10;95.40;;;;;;4990295;28;20057;-45
2022/06/28 06:06:15;;;;;;;9.85;3.78;;;29.40;95.40;;;;;;4993167;28;20193;-46
2022/06/28 06:08:41;;;;;;;8.88;3.00;;;29.70;94.80;;;;;;5000231;28;20838;-45
2022/06/28 06:11:07;;;;;;;7.65;2.80;;;30.00;94.40;;;;;;5003879;28;20064;-46
2022/06/28 06:13:34;;;;;;;11.98;3.03;;;30.30;94.60;;;;;;4986594;28;20089;-45
2022/06/28 06:16:02;;;;;;;8.50;2.88;;;30.60;94.50;;;;;;5001586;28;20133;-48
2022/06/28 06:18:28;;;;;;;11.45;3.13;;;30.70;93.90;;;;;;5003915;28;20045;-45
2022/06/28 06:20:54;;;;;;;6.18;2.92;;;30.60;93.50;;;;;;4975366;28;20082;-47
2022/06/28 06:23:20;;;;;;;8.27;2.92;;;30.70;93.70;;;;;;4981956;28;20192;-45
2022/06/28 06:25:45;;;;;;;8.30;3.20;;;30.60;93.40;;;;;;4990242;28;20335;-46
2022/06/28 06:28:11;;;;;;;8.32;2.95;;;30.70;93.30;;;;;;4995581;28;20313;-45
2022/06/28 06:30:37;;;;;;;5.13;2.88;;;30.80;93.20;;;;;;4995860;28;20045;-45
2022/06/28 06:33:03;;;;;;;7.18;2.80;;;30.80;93.30;;;;;;4983061;28;20109;-45
2022/06/28 06:35:29;;;;;;;7.85;2.72;;;30.30;93.70;;;;;;4993206;28;20138;-45
2022/06/28 06:38:00;;;;;;;6.57;2.70;;;30.10;93.40;;;;;;4983132;28;20079;-45
2022/06/28 06:40:27;;;;;;;8.55;2.80;;;30.20;93.60;;;;;;4998166;28;20489;-47
2022/06/28 06:42:54;;;;;;;8.93;3.10;;;30.40;93.50;;;;;;4995806;28;20046;-45
2022/06/28 06:45:20;;;;;;;10.25;3.40;;;30.90;93.50;;;;;;4977234;28;20058;-45
2022/06/28 06:47:45;;;;;;;12.10;3.50;;;30.50;93.50;;;;;;4978907;28;20059;-47
2022/06/28 06:50:14;;;;;;;13.13;3.30;;;30.20;93.50;;;;;;5021458;28;20049;-45
2022/06/28 06:52:40;;;;;;;9.63;3.03;;;30.10;93.20;;;;;;5002773;28;20064;-46
2022/06/28 06:55:07;;;;;;;9.10;3.42;;;30.10;93.40;;;;;;5021130;28;20045;-45
2022/06/28 06:57:32;;;;;;;9.00;3.08;;;30.10;93.00;;;;;;5021538;28;20053;-46
2022/06/28 06:59:58;;;;;;;9.15;3.05;;;29.40;93.40;;;;;;5006502;28;20257;-46
2022/06/28 07:02:24;;;;;;;8.05;3.17;;;28.70;94.30;;;;;;4992490;28;20500;-44
2022/06/28 07:04:50;;;;;;;10.77;3.38;;;28.90;94.70;;;;;;5004458;28;20461;-45
2022/06/28 07:07:16;;;;;;;5.93;2.55;;;29.60;94.50;;;;;;4973065;28;20133;-46
2022/06/28 07:09:41;;;;;;;8.85;2.60;;;29.90;93.50;;;;;;4991419;28;20052;-45
2022/06/28 07:12:07;;;;;;;10.20;2.72;;;30.30;93.40;;;;;;4994344;28;20053;-44
2022/06/28 07:14:33;;;;;;;10.75;3.47;;;30.10;93.50;;;;;;5020735;28;20045;-45
2022/06/28 07:16:59;;;;;;;10.05;3.22;;;29.80;93.60;;;;;;5003074;28;20116;-45
2022/06/28 07:19:24;;;;;;;6.10;2.63;;;29.90;93.20;;;;;;5020458;28;20045;-46
2022/06/28 07:21:50;;;;;;;8.90;2.72;;;30.10;91.20;;;;;;5008630;28;20042;-44
2022/06/28 07:24:17;;;;;;;13.18;4.05;;;30.80;91.70;;;;;;4982171;28;20513;-45
2022/06/28 07:26:43;;;;;;;8.52;3.40;;;30.60;91.70;;;;;;5000794;28;20061;-45
2022/06/28 07:29:10;;;;;;;9.05;2.90;;;30.10;92.20;;;;;;4980549;28;20057;-46
2022/06/28 07:31:37;;;;;;;9.50;2.50;;;28.70;91.60;;;;;;4983528;28;20054;-45
2022/06/28 07:34:02;;;;;;;10.68;3.58;;;27.60;92.70;;;;;;4996589;28;20045;-45
2022/06/28 07:36:28;;;;;;;10.68;2.70;;;26.60;93.80;;;;;;4993343;28;20046;-48
2022/06/28 07:38:57;;;;;;;10.07;2.90;;;26.20;94.10;;;;;;5004855;28;20060;-50
2022/06/28 07:41:23;;;;;;;11.27;2.83;;;25.60;94.10;;;;;;4981183;28;20058;-45
2022/06/28 07:43:52;;;;;;;10.38;3.13;;;25.20;94.70;;;;;;5012319;28;20056;-46
2022/06/28 07:46:19;;;;;;;8.45;2.88;;;24.60;94.90;;;;;;5016828;28;20042;-44
2022/06/28 07:48:46;;;;;;;9.88;3.50;;;23.90;95.70;;;;;;5020743;28;20066;-44
2022/06/28 07:53:58;;;;;;;7.72;2.45;;;23.30;98.10;;;;;;5014627;28;20064;-44
2022/06/28 07:56:24;;;;;;;10.05;2.70;;;23.40;98.50;;;;;;5011721;28;20127;-44
2022/06/28 07:58:49;;;;;;;11.50;3.17;;;23.50;97.00;;;;;;5010800;28;20124;-44
2022/06/28 08:01:15;;;;;;;10.10;2.63;;;23.60;97.20;;;;;;5019095;28;20125;-46
2022/06/28 08:03:41;;;;;;;12.93;2.95;;;23.40;97.80;;;;;;5020783;28;20644;-45
2022/06/28 08:06:07;;;;;;;9.38;2.80;;;23.30;97.40;;;;;;5020551;28;20056;-44
2022/06/28 08:08:33;;;;;;;10.23;2.22;;;23.20;97.90;;;;;;5023139;28;20441;-44
2022/06/28 08:10:59;;;;;;;9.30;2.97;;;22.90;97.60;;;;;;5026019;28;20600;-45
2022/06/28 08:13:26;;;;;;;7.40;2.72;;;22.50;98.40;;;;;;5008124;28;20116;-44
2022/06/28 08:15:53;;;;;;;8.95;2.88;;;22.20;99.40;;;;;;5017083;28;20463;-44
2022/06/28 08:18:19;;;;;;;10.85;2.90;;;22.00;99.90;;;;;;5023847;28;20576;-45
2022/06/28 08:20:44;;;;;;;8.00;2.95;;;21.80;99.90;;;;;;5026040;28;20172;-44
2022/06/28 08:23:11;;;;;;;9.45;2.60;;;22.00;99.90;;;;;;5003051;28;20056;-44
2022/06/28 08:25:42;;;;;;;10.10;2.22;;;22.40;99.90;;;;;;5022840;28;20117;-44
2022/06/28 08:28:09;;;;;;;15.43;2.80;;;22.70;99.90;;;;;;5008938;28;20057;-45
2022/06/28 08:30:35;;;;;;;11.65;3.55;;;23.10;99.90;;;;;;5018055;28;20064;-45
2022/06/28 08:33:01;;;;;;;12.50;3.63;;;23.30;99.90;;;;;;5030400;28;20380;-46
2022/06/28 08:35:26;;;;;;;11.35;2.53;;;23.60;99.90;;;;;;5041727;28;20049;-45
2022/06/28 08:37:52;;;;;;;13.30;2.90;;;23.70;99.90;;;;;;5038606;28;20439;-45
2022/06/28 08:40:21;;;;;;;13.40;2.67;;;23.70;99.60;;;;;;5030925;28;20160;-44
2022/06/28 08:42:52;;;;;;;11.88;2.65;;;23.70;99.90;;;;;;5042903;28;20084;-45
2022/06/28 08:45:18;;;;;;;10.40;3.55;;;23.90;99.30;;;;;;5042310;28;20501;-45
2022/06/28 08:47:47;;;;;;;14.35;2.95;;;23.90;97.90;;;;;;5022634;28;20053;-45
2022/06/28 08:50:39;;;;;;;11.30;3.08;;;24.10;98.90;;;;;;5024388;28;20048;-46
2022/06/28 08:53:07;;;;;;;8.20;2.83;;;24.10;98.00;;;;;;5019126;28;20380;-48
2022/06/28 08:55:34;;;;;;;10.85;3.25;;;24.00;97.90;;;;;;5030813;28;20049;-46
2022/06/28 08:58:03;;;;;;;5.88;1.90;;;24.00;98.40;;;;;;5013068;28;20069;-45
2022/06/28 09:00:29;;;;;;;8.60;2.38;;;24.10;97.40;;;;;;5038677;28;20115;-45
2022/06/28 09:02:58;;;;;;;8.88;2.30;;;24.40;98.10;;;;;;5016093;28;20045;-50
2022/06/28 09:05:26;;;;;;;9.98;2.50;;;24.20;97.30;;;;;;5034548;28;20053;-48
2022/06/28 09:07:56;;;;;;;7.10;2.05;;;23.90;97.40;;;;;;5030356;28;20120;-45
2022/06/28 09:10:23;;;;;;;10.55;2.33;;;23.60;97.80;;;;;;4990694;28;20137;-44
2022/06/28 09:12:55;;;;;;;8.75;2.33;;;23.10;97.80;;;;;;5022880;28;20522;-44
2022/06/28 09:15:25;;;;;;;7.68;2.63;;;23.00;98.10;;;;;;5016045;28;20069;-45
2022/06/28 09:17:55;;;;;;;7.95;2.60;;;23.20;98.30;;;;;;5034016;28;20387;-44
2022/06/28 09:20:36;;;;;;;9.27;3.60;;;23.50;97.30;;;;;;5028941;28;20103;-44
2022/06/28 09:23:01;;;;;;;11.05;3.42;;;23.60;98.20;;;;;;5019854;28;20476;-44
2022/06/28 09:25:30;;;;;;;10.07;2.50;;;23.40;98.00;;;;;;5028852;28;20491;-44
2022/06/28 09:27:58;;;;;;;7.22;2.03;;;23.10;97.00;;;;;;5008114;28;20049;-44
2022/06/28 09:30:30;;;;;;;7.72;2.00;;;23.00;97.30;;;;;;5020067;28;20507;-44
2022/06/28 09:32:56;;;;;;;7.63;2.10;;;22.90;97.00;;;;;;5004916;28;20079;-43
2022/06/28 09:35:24;;;;;;;7.13;2.17;;;22.70;96.90;;;;;;5021722;28;20401;-45
2022/06/28 09:37:51;;;;;;;5.57;2.15;;;22.70;97.30;;;;;;5027083;28;20049;-46
2022/06/28 09:40:20;;;;;;;7.25;1.80;;;23.10;97.50;;;;;;5018837;28;20132;-45
2022/06/28 09:43:03;;;;;;;8.38;1.83;;;23.40;97.20;;;;;;5002722;28;20046;-45
2022/06/28 09:45:29;;;;;;;7.60;1.95;;;23.80;97.20;;;;;;5002479;28;20057;-44
2022/06/28 09:47:56;;;;;;;6.72;1.90;;;24.10;97.10;;;;;;5003357;28;20054;-44
2022/06/28 09:50:23;;;;;;;5.60;1.75;;;24.00;96.10;;;;;;4984116;28;20096;-44
2022/06/28 09:52:50;;;;;;;7.68;2.65;;;23.70;95.90;;;;;;5001026;28;20056;-45
2022/06/28 09:55:17;;;;;;;7.88;2.47;;;23.50;95.90;;;;;;5021637;28;20067;-45
2022/06/28 09:57:45;;;;;;;6.43;1.80;;;23.30;95.90;;;;;;5011208;28;20042;-45
2022/06/28 10:00:12;;;;;;;8.63;2.55;;;23.10;95.90;;;;;;5001044;28;20129;-44
2022/06/28 10:02:41;;;;;;;11.27;2.97;;;22.90;96.30;;;;;;4981863;28;20161;-47
2022/06/28 10:05:08;;;;;;;5.07;1.73;;;22.60;97.10;;;;;;4992162;28;20054;-45
2022/06/28 10:07:34;;;;;;;8.98;2.53;;;22.50;97.00;;;;;;5011770;28;20078;-46
2022/06/28 10:10:04;;;;;;;9.00;2.28;;;22.70;97.80;;;;;;4999164;28;20177;-44
2022/06/28 10:15:20;;;;;;;6.80;1.90;;;23.10;97.80;;;;;;5003076;28;20187;-45
2022/06/28 10:18:00;;;;;;;6.03;1.90;;;23.50;96.50;;;;;;4998751;28;20156;-48
2022/06/28 10:20:35;;;;;;;8.15;2.15;;;23.90;95.40;;;;;;5007525;28;20058;-44
2022/06/28 10:23:21;;;;;;;8.05;2.00;;;24.10;97.30;;;;;;4982320;28;20042;-46
2022/06/28 10:26:09;;;;;;;4.95;1.60;;;24.40;97.60;;;;;;5001050;28;20086;-45
2022/06/28 10:28:47;;;;;;;16.33;2.33;;;24.70;97.00;;;;;;5003188;28;20052;-46
2022/06/28 10:31:24;;;;;;;5.38;2.08;;;25.00;96.70;;;;;;5018728;28;20460;-49
2022/06/28 10:33:52;;;;;;;7.75;2.33;;;25.20;95.50;;;;;;5020620;28;20053;-46
2022/06/28 10:36:21;;;;;;;8.35;2.40;;;25.30;94.90;;;;;;4990116;28;20061;-45
2022/06/28 10:39:29;;;;;;;5.97;2.08;;;25.30;94.30;;;;;;5011241;28;20563;-46
2022/06/28 10:42:01;;;;;;;6.70;2.30;;;25.10;96.40;;;;;;4886463;29;20064;-45
2022/06/28 10:44:43;;;;;;;9.60;2.13;;;25.30;96.60;;;;;;4894296;29;20051;-44
2022/06/28 10:47:11;;;;;;;4.07;1.83;;;25.30;95.70;;;;;;4894654;29;20052;-46
2022/06/28 10:49:57;;;;;;;4.75;2.25;;;25.40;95.10;;;;;;4899855;29;20048;-45
2022/06/28 10:52:30;;;;;;;3.97;1.98;;;24.90;93.40;;;;;;4893254;29;20476;-45
2022/06/28 10:54:56;;;;;;;6.18;2.08;;;24.40;93.60;;;;;;4891691;29;20060;-45
2022/06/28 10:57:30;;;;;;;5.60;1.50;;;24.10;94.50;;;;;;4874581;29;20546;-47
2022/06/28 10:59:58;;;;;;;6.28;1.90;;;23.90;94.80;;;;;;4892569;29;20056;-45
2022/06/28 11:02:49;;;;;;;7.80;2.00;;;23.80;94.50;;;;;;4899876;29;20044;-44
2022/06/28 11:05:17;;;;;;;8.52;2.00;;;24.00;96.30;;;;;;4899998;29;20519;-44
2022/06/28 11:07:58;;;;;;;6.60;2.17;;;24.20;96.10;;;;;;4881037;29;20092;-45
2022/06/28 11:10:24;;;;;;;8.43;2.03;;;24.20;94.20;;;;;;4896498;29;20085;-45
2022/06/28 11:12:49;;;;;;;6.30;1.90;;;24.50;95.60;;;;;;4885659;29;20131;-46
2022/06/28 11:15:27;;;;;;;10.27;2.17;;;24.50;95.60;;;;;;4917845;29;20164;-46
2022/06/28 11:17:53;;;;;;;7.50;2.22;;;24.70;94.20;;;;;;4975361;28;20392;-44
2022/06/28 11:20:33;;;;;;;8.23;2.58;;;24.30;93.70;;;;;;5007271;28;20104;-47
2022/06/28 11:22:59;;;;;;;11.30;2.90;;;24.10;94.50;;;;;;5005533;28;20548;-46
2022/06/28 11:27:19;;;;;;;7.70;2.40;;;23.80;94.70;;;;;;5007231;28;20046;-45
2022/06/28 11:28:12;;;;;;;8.48;2.50;;;23.60;94.40;;;;;;5003572;28;20056;-45
2022/06/28 11:30:41;;;;;;;7.18;2.17;;;23.70;95.10;;;;;;4998396;28;20546;-45
2022/06/28 11:33:11;;;;;;;6.97;2.10;;;23.90;95.80;;;;;;5000297;28;20080;-45
2022/06/28 11:35:38;;;;;;;6.40;1.90;;;24.10;94.90;;;;;;5000833;28;20050;-44
2022/06/28 11:38:06;;;;;;;5.57;1.73;;;24.10;94.40;;;;;;5011005;28;20056;-44
2022/06/28 11:40:41;;;;;;;7.72;2.22;;;24.10;94.50;;;;;;4991818;28;20460;-44
2022/06/28 11:43:09;;;;;;;7.50;2.15;;;23.70;93.90;;;;;;5016997;28;20099;-44
2022/06/28 11:45:43;;;;;;;5.25;2.00;;;23.70;95.10;;;;;;5002282;28;20554;-47
2022/06/28 11:48:10;;;;;;;5.68;1.55;;;24.10;96.30;;;;;;5020142;28;20111;-45
2022/06/28 11:50:43;;;;;;;5.32;1.65;;;24.20;95.30;;;;;;5015497;28;20045;-45
2022/06/28 11:53:11;;;;;;;6.32;1.70;;;24.00;93.20;;;;;;5001191;28;20053;-48
2022/06/28 11:55:38;;;;;;;5.20;1.55;;;24.00;95.30;;;;;;4988807;28;20170;-45
2022/06/28 11:58:11;;;;;;;4.53;2.15;;;24.30;95.30;;;;;;5021584;28;20057;-49
2022/06/28 12:00:37;;;;;;;6.10;1.58;;;24.40;94.50;;;;;;4980722;28;20544;-46
2022/06/28 12:03:05;;;;;;;6.60;1.63;;;24.30;94.60;;;;;;4982972;28;20054;-45
2022/06/28 12:05:33;;;;;;;5.00;2.00;;;24.30;94.30;;;;;;5016741;28;20077;-44
2022/06/28 12:08:00;;;;;;;6.80;1.80;;;24.20;94.30;;;;;;5020319;28;20060;-46
2022/06/28 12:10:28;;;;;;;5.32;2.35;;;24.10;94.60;;;;;;4997170;28;20089;-47
2022/06/28 12:12:56;;;;;;;5.20;1.92;;;23.90;94.00;;;;;;5008682;28;20054;-44
2022/06/28 12:15:30;;;;;;;6.15;2.10;;;23.90;94.60;;;;;;4980163;28;20054;-46
2022/06/28 12:18:02;;;;;;;4.32;1.73;;;23.70;94.40;;;;;;4981526;28;20488;-44
2022/06/28 12:20:32;;;;;;;4.22;1.50;;;23.50;95.10;;;;;;4976514;28;20046;-47
2022/06/28 12:23:03;;;;;;;5.57;1.92;;;23.40;94.60;;;;;;4999717;28;20060;-49
2022/06/28 12:25:32;;;;;;;7.10;2.03;;;23.70;95.60;;;;;;5000587;28;20041;-44
2022/06/28 12:27:57;;;;;;;7.40;1.98;;;23.90;95.70;;;;;;5000071;28;20049;-46
2022/06/28 12:30:23;;;;;;;6.35;1.70;;;24.10;94.90;;;;;;4997617;28;21173;-44
2022/06/28 12:32:52;;;;;;;6.03;1.73;;;24.20;94.60;;;;;;4999284;28;20474;-45
2022/06/28 12:35:19;;;;;;;3.50;1.60;;;24.20;94.50;;;;;;5000046;28;20439;-45
2022/06/28 12:37:45;;;;;;;6.07;1.75;;;24.00;94.30;;;;;;4999911;28;20390;-47
2022/06/28 12:40:13;;;;;;;8.27;2.53;;;24.10;93.60;;;;;;5007332;28;20052;-44
2022/06/28 12:42:39;;;;;;;5.80;1.90;;;23.90;93.90;;;;;;5035897;28;20084;-43
2022/06/28 12:45:05;;;;;;;6.28;1.65;;;23.80;93.40;;;;;;5035690;28;20037;-45
2022/06/28 12:47:36;;;;;;;5.70;1.63;;;23.70;93.90;;;;;;5031089;28;20072;-44
2022/06/28 12:50:05;;;;;;;9.43;2.20;;;23.70;95.30;;;;;;5021402;28;20059;-44
2022/06/28 12:52:33;;;;;;;5.10;2.13;;;23.90;95.40;;;;;;5040977;28;20045;-45
2022/06/28 12:54:59;;;;;;;5.57;1.77;;;23.90;95.60;;;;;;5023788;28;20073;-44
2022/06/28 12:57:26;;;;;;;4.30;1.65;;;23.90;94.80;;;;;;5023609;28;20132;-44
2022/06/28 12:59:52;;;;;;;9.10;2.10;;;24.00;94.80;;;;;;5037595;28;20511;-44